createdAt,value
2023-02-28T00:02:57.684Z,9.20
2023-02-28T00:06:00.745Z,9.40
2023-02-28T00:09:04.163Z,9.13
2023-02-28T00:12:11.075Z,8.80
2023-02-28T00:15:14.124Z,8.52
2023-02-28T00:18:17.039Z,9.32
2023-02-28T00:21:20.904Z,9.10
2023-02-28T00:24:23.890Z,8.75
2023-02-28T00:27:28.364Z,8.35
2023-02-28T00:30:31.368Z,8.40
2023-02-28T00:33:34.556Z,8.30
2023-02-28T00:36:37.588Z,7.97
2023-02-28T00:39:41.769Z,8.48
2023-02-28T00:42:46.155Z,7.65
2023-02-28T00:45:49.090Z,7.95
2023-02-28T00:48:52.089Z,7.45
2023-02-28T00:51:56.441Z,7.82
2023-02-28T00:54:59.501Z,8.00
2023-02-28T00:58:03.813Z,8.57
2023-02-28T01:01:06.948Z,7.30
2023-02-28T01:04:09.962Z,7.50
2023-02-28T01:07:12.968Z,7.22
2023-02-28T01:10:16.290Z,6.90
2023-02-28T01:13:20.933Z,7.03
2023-02-28T01:16:23.984Z,6.82
2023-02-28T01:19:26.905Z,7.15
2023-02-28T01:22:30.262Z,6.57
2023-02-28T01:25:36.623Z,6.40
2023-02-28T01:28:43.475Z,6.70
2023-02-28T01:31:46.733Z,5.90
2023-02-28T01:34:49.686Z,5.85
2023-02-28T01:37:52.676Z,5.82
2023-02-28T01:40:55.916Z,6.03
2023-02-28T01:44:06.871Z,5.70
2023-02-28T01:47:09.965Z,6.50
2023-02-28T01:50:18.324Z,6.32
2023-02-28T01:53:25.770Z,6.10
2023-02-28T01:56:33.621Z,5.43
2023-02-28T01:59:47.117Z,5.78
2023-02-28T02:02:53.475Z,5.65
2023-02-28T02:05:56.498Z,5.22
2023-02-28T02:08:59.446Z,5.85
2023-02-28T02:12:16.694Z,5.18
2023-02-28T02:15:28.762Z,5.70
2023-02-28T02:18:42.328Z,5.85
2023-02-28T02:22:15.238Z,5.35
2023-02-28T02:25:28.800Z,5.10
2023-02-28T02:29:02.097Z,5.25
2023-02-28T02:32:27.841Z,5.70
2023-02-28T02:35:37.536Z,5.10
2023-02-28T02:38:48.990Z,5.10
2023-02-28T02:41:54.937Z,4.82
2023-02-28T02:45:03.437Z,5.15
2023-02-28T02:48:11.293Z,4.63
2023-02-28T02:51:18.505Z,4.70
2023-02-28T02:54:28.948Z,5.45
2023-02-28T02:57:38.224Z,4.70
2023-02-28T03:00:44.868Z,4.85
2023-02-28T03:03:48.081Z,4.72
2023-02-28T03:06:55.878Z,5.18
2023-02-28T03:09:59.918Z,4.70
2023-02-28T03:13:17.000Z,4.82
2023-02-28T03:16:35.728Z,4.45
2023-02-28T03:19:52.456Z,4.57
2023-02-28T03:23:06.066Z,4.55
2023-02-28T03:26:15.781Z,4.57
2023-02-28T03:29:29.777Z,4.43
2023-02-28T03:32:39.677Z,4.50
2023-02-28T03:35:46.028Z,4.53
2023-02-28T03:38:56.633Z,4.40
2023-02-28T03:42:03.209Z,4.13
2023-02-28T03:45:11.300Z,4.60
2023-02-28T03:48:19.635Z,4.30
2023-02-28T03:51:26.433Z,4.35
2023-02-28T03:54:35.541Z,3.85
2023-02-28T03:57:45.536Z,4.35
2023-02-28T04:00:53.405Z,3.95
2023-02-28T04:03:56.441Z,4.43
2023-02-28T04:07:04.285Z,3.75
2023-02-28T04:10:10.125Z,3.88
2023-02-28T04:13:13.027Z,4.07
2023-02-28T04:16:32.148Z,4.20
2023-02-28T04:19:37.393Z,3.65
2023-02-28T04:22:40.345Z,3.78
2023-02-28T04:25:44.684Z,3.65
2023-02-28T04:28:47.701Z,4.10
2023-02-28T04:31:50.994Z,3.60
2023-02-28T04:34:53.993Z,3.88
2023-02-28T04:37:56.965Z,3.65
2023-02-28T04:41:02.101Z,3.88
2023-02-28T04:44:05.211Z,4.38
2023-02-28T04:47:08.265Z,3.72
2023-02-28T04:50:12.022Z,4.00
2023-02-28T04:53:14.980Z,3.70
2023-02-28T04:56:19.937Z,4.43
2023-02-28T04:59:22.928Z,3.65
2023-02-28T05:02:25.972Z,3.13
2023-02-28T05:05:29.046Z,4.40
2023-02-28T05:08:32.001Z,3.90
2023-02-28T05:11:38.282Z,3.88
2023-02-28T05:14:41.239Z,3.80
2023-02-28T05:17:44.419Z,3.92
2023-02-28T05:20:47.549Z,3.92
2023-02-28T05:23:50.454Z,4.13
2023-02-28T05:26:55.852Z,4.03
2023-02-28T05:29:59.983Z,3.80
2023-02-28T05:33:02.973Z,3.40
2023-02-28T05:36:07.022Z,3.65
2023-02-28T05:39:13.459Z,3.70
2023-02-28T05:42:17.833Z,3.65
2023-02-28T05:45:20.781Z,3.83
2023-02-28T05:48:23.751Z,3.70
2023-02-28T05:51:26.862Z,3.50
2023-02-28T05:54:29.896Z,3.75
2023-02-28T05:57:34.330Z,3.70
2023-02-28T06:00:37.345Z,3.60
2023-02-28T06:03:40.292Z,3.45
2023-02-28T06:06:43.473Z,3.78
2023-02-28T06:09:46.413Z,3.42
2023-02-28T06:12:50.725Z,3.15
2023-02-28T06:15:53.691Z,3.55
2023-02-28T06:18:57.774Z,3.65
2023-02-28T06:22:00.814Z,3.92
2023-02-28T06:25:03.961Z,3.70
2023-02-28T06:28:08.301Z,3.60
2023-02-28T06:31:13.011Z,3.58
2023-02-28T06:34:16.649Z,3.38
2023-02-28T06:37:19.981Z,3.38
2023-02-28T06:40:22.932Z,3.47
2023-02-28T06:43:30.591Z,3.45
2023-02-28T06:46:34.590Z,3.83
2023-02-28T06:49:38.222Z,3.92
2023-02-28T06:52:41.422Z,3.45
2023-02-28T06:55:44.432Z,3.47
2023-02-28T06:58:50.637Z,2.97
2023-02-28T07:01:53.743Z,3.47
2023-02-28T07:04:56.870Z,3.67
2023-02-28T07:07:59.925Z,3.28
2023-02-28T07:11:03.013Z,3.45
2023-02-28T07:14:07.408Z,3.42
2023-02-28T07:17:11.900Z,3.40
2023-02-28T07:20:15.378Z,3.80
2023-02-28T07:23:18.814Z,3.35
2023-02-28T07:26:23.044Z,3.00
2023-02-28T07:29:27.997Z,3.10
2023-02-28T07:32:31.044Z,3.78
2023-02-28T07:35:34.555Z,3.42
2023-02-28T07:38:38.456Z,3.20
2023-02-28T07:41:44.510Z,3.40
2023-02-28T07:44:48.977Z,3.47
2023-02-28T07:47:52.387Z,3.15
2023-02-28T07:50:57.454Z,3.08
2023-02-28T07:54:00.715Z,3.28
2023-02-28T07:57:03.947Z,3.30
2023-02-28T08:00:11.439Z,3.42
2023-02-28T08:03:17.762Z,3.83
2023-02-28T08:06:24.084Z,3.40
2023-02-28T08:09:27.206Z,3.00
2023-02-28T08:12:30.289Z,3.40
2023-02-28T08:15:35.017Z,3.13
2023-02-28T08:18:38.360Z,3.45
2023-02-28T08:21:41.485Z,3.85
2023-02-28T08:24:44.948Z,3.33
2023-02-28T08:27:48.037Z,3.20
2023-02-28T08:30:52.855Z,3.42
2023-02-28T08:33:59.822Z,3.42
2023-02-28T08:37:02.875Z,3.63
2023-02-28T08:40:06.913Z,3.33
2023-02-28T08:43:09.969Z,3.50
2023-02-28T08:46:15.682Z,3.90
2023-02-28T08:49:19.688Z,3.58
2023-02-28T08:52:22.682Z,3.30
2023-02-28T08:55:25.713Z,3.75
2023-02-28T08:58:29.223Z,3.55
2023-02-28T09:01:33.840Z,3.35
2023-02-28T09:04:37.060Z,3.17
2023-02-28T09:07:40.018Z,4.32
2023-02-28T09:10:43.028Z,3.75
2023-02-28T09:13:46.207Z,4.32
2023-02-28T09:16:50.688Z,4.32
2023-02-28T09:19:53.754Z,4.05
2023-02-28T09:22:57.686Z,4.45
2023-02-28T09:26:00.764Z,4.88
2023-02-28T09:29:04.881Z,4.28
2023-02-28T09:32:09.339Z,4.55
2023-02-28T09:35:15.479Z,4.97
2023-02-28T09:38:19.034Z,4.75
2023-02-28T09:41:24.807Z,4.57
2023-02-28T09:44:33.848Z,4.28
2023-02-28T09:47:42.898Z,4.20
2023-02-28T09:50:50.320Z,4.47
2023-02-28T09:54:00.076Z,4.15
2023-02-28T09:57:10.886Z,4.30
2023-02-28T10:00:20.421Z,3.72
2023-02-28T10:03:37.807Z,3.75
2023-02-28T10:06:47.488Z,4.20
2023-02-28T10:09:55.678Z,4.32
2023-02-28T10:13:03.078Z,3.97
2023-02-28T10:16:10.621Z,3.65
2023-02-28T10:19:21.172Z,4.28
2023-02-28T10:22:31.593Z,3.58
2023-02-28T10:25:34.567Z,3.50
2023-02-28T10:28:37.689Z,4.30
2023-02-28T10:31:41.753Z,4.10
2023-02-28T10:34:46.462Z,3.83
2023-02-28T10:37:51.027Z,3.70
2023-02-28T10:41:05.877Z,4.38
2023-02-28T10:44:19.714Z,3.90
2023-02-28T10:47:22.746Z,3.40
2023-02-28T10:50:34.577Z,3.40
2023-02-28T10:54:00.502Z,3.83
2023-02-28T10:57:25.407Z,3.90
2023-02-28T11:00:36.665Z,3.72
2023-02-28T11:03:39.636Z,3.70
2023-02-28T11:06:44.042Z,3.42
2023-02-28T11:09:50.240Z,3.97
2023-02-28T11:12:58.703Z,3.88
2023-02-28T11:16:06.235Z,3.45
2023-02-28T11:19:21.363Z,3.67
2023-02-28T11:22:30.160Z,3.40
2023-02-28T11:25:35.716Z,3.67
2023-02-28T11:28:40.207Z,3.40
2023-02-28T11:31:43.327Z,3.42
2023-02-28T11:34:48.450Z,3.13
2023-02-28T11:37:52.887Z,3.58
2023-02-28T11:41:11.788Z,3.50
2023-02-28T11:44:28.567Z,3.25
2023-02-28T11:47:40.156Z,3.20
2023-02-28T11:50:55.945Z,3.50
2023-02-28T11:54:27.309Z,3.13
2023-02-28T11:57:38.324Z,3.08
2023-02-28T12:00:59.306Z,2.97
2023-02-28T12:04:17.983Z,3.60
2023-02-28T12:07:30.338Z,3.17
2023-02-28T12:10:46.525Z,2.95
2023-02-28T12:14:03.088Z,3.00
2023-02-28T12:17:18.898Z,3.40
2023-02-28T12:20:32.985Z,3.08
2023-02-28T12:23:59.655Z,3.13
2023-02-28T12:27:08.578Z,3.10
2023-02-28T12:30:20.370Z,2.85
2023-02-28T12:33:29.935Z,3.00
2023-02-28T12:36:35.923Z,2.85
2023-02-28T12:39:50.274Z,3.00
2023-02-28T12:42:59.359Z,2.75
2023-02-28T12:46:10.143Z,3.03
2023-02-28T12:49:17.662Z,2.63
2023-02-28T12:52:25.720Z,2.95
2023-02-28T12:55:37.587Z,2.83
2023-02-28T12:58:47.397Z,3.15
2023-02-28T13:02:02.446Z,2.70
2023-02-28T13:05:20.809Z,2.67
2023-02-28T13:08:42.478Z,2.50
2023-02-28T13:11:47.189Z,2.97
2023-02-28T13:14:52.573Z,2.63
2023-02-28T13:17:58.920Z,2.47
2023-02-28T13:21:03.141Z,2.50
2023-02-28T13:24:07.278Z,2.72
2023-02-28T13:27:39.799Z,2.83
2023-02-28T13:31:09.086Z,2.67
2023-02-28T13:34:18.338Z,2.50
2023-02-28T13:37:43.862Z,2.75
2023-02-28T13:40:46.846Z,2.70
2023-02-28T13:44:04.663Z,2.63
2023-02-28T13:47:30.003Z,2.90
2023-02-28T13:50:38.614Z,2.35
2023-02-28T13:54:03.143Z,2.50
2023-02-28T13:57:22.937Z,2.40
2023-02-28T14:00:37.625Z,2.53
2023-02-28T14:04:01.028Z,2.45
2023-02-28T14:07:05.212Z,2.47
2023-02-28T14:10:10.251Z,2.53
2023-02-28T14:13:37.974Z,2.30
2023-02-28T14:16:45.802Z,2.47
2023-02-28T14:19:51.312Z,2.65
2023-02-28T14:23:03.356Z,2.58
2023-02-28T14:26:21.195Z,2.67
2023-02-28T14:29:44.042Z,2.67
2023-02-28T14:32:53.362Z,2.47
2023-02-28T14:36:08.336Z,2.50
2023-02-28T14:39:16.455Z,2.30
2023-02-28T14:42:31.605Z,2.47
2023-02-28T14:45:38.411Z,2.35
2023-02-28T14:48:41.805Z,2.50
2023-02-28T14:51:48.243Z,2.10
2023-02-28T14:54:55.590Z,2.38
2023-02-28T14:57:59.759Z,2.25
2023-02-28T15:01:05.024Z,2.40
2023-02-28T15:04:08.533Z,2.28
2023-02-28T15:07:15.917Z,2.42
2023-02-28T15:10:21.653Z,2.28
2023-02-28T15:13:28.191Z,2.33
2023-02-28T15:16:36.495Z,2.20
2023-02-28T15:19:44.281Z,2.53
2023-02-28T15:22:51.746Z,2.72
2023-02-28T15:25:55.927Z,2.80
2023-02-28T15:29:02.593Z,2.67
2023-02-28T15:32:08.369Z,2.33
2023-02-28T15:35:22.942Z,2.60
2023-02-28T15:38:28.970Z,2.33
2023-02-28T15:41:33.588Z,2.67
2023-02-28T15:44:38.048Z,2.55
2023-02-28T15:47:41.204Z,2.70
2023-02-28T15:50:44.276Z,2.42
2023-02-28T15:53:51.960Z,2.30
2023-02-28T15:56:57.608Z,2.40
2023-02-28T16:00:05.365Z,2.55
2023-02-28T16:03:29.262Z,2.33
2023-02-28T16:06:38.612Z,3.22
2023-02-28T16:09:43.563Z,2.40
2023-02-28T16:12:47.038Z,2.38
2023-02-28T16:15:52.397Z,2.33
2023-02-28T16:18:55.986Z,2.08
2023-02-28T16:21:59.310Z,2.35
2023-02-28T16:25:05.201Z,2.42
2023-02-28T16:28:14.604Z,2.30
2023-02-28T16:31:17.665Z,2.25
2023-02-28T16:34:20.625Z,2.08
2023-02-28T16:37:23.594Z,2.40
2023-02-28T16:40:29.576Z,2.13
2023-02-28T16:43:33.322Z,2.20
2023-02-28T16:46:37.097Z,2.47
2023-02-28T16:49:40.655Z,2.28
2023-02-28T16:52:43.623Z,2.40
2023-02-28T16:55:48.431Z,2.10
2023-02-28T16:58:52.368Z,2.35
2023-02-28T17:01:56.990Z,2.00
2023-02-28T17:05:00.347Z,2.42
2023-02-28T17:08:03.239Z,2.28
2023-02-28T17:11:07.521Z,2.50
2023-02-28T17:14:10.361Z,2.63
2023-02-28T17:17:19.984Z,2.25
2023-02-28T17:20:24.488Z,2.42
2023-02-28T17:23:27.358Z,2.63
2023-02-28T17:26:32.271Z,2.72
2023-02-28T17:29:35.687Z,2.80
2023-02-28T17:32:38.542Z,3.13
2023-02-28T17:35:41.512Z,2.65
2023-02-28T17:38:44.489Z,2.78
2023-02-28T17:41:48.711Z,2.80
2023-02-28T17:44:51.530Z,2.80
2023-02-28T17:47:54.497Z,3.38
2023-02-28T17:50:57.437Z,2.70
2023-02-28T17:54:00.691Z,2.88
2023-02-28T17:57:05.136Z,2.80
2023-02-28T18:00:09.187Z,2.58
2023-02-28T18:03:14.986Z,2.58
2023-02-28T18:06:21.157Z,2.67
2023-02-28T18:09:24.789Z,2.58
2023-02-28T18:12:29.276Z,2.70
2023-02-28T18:15:32.998Z,3.00
2023-02-28T18:18:38.141Z,2.70
2023-02-28T18:21:41.051Z,2.42
2023-02-28T18:24:43.948Z,2.40
2023-02-28T18:27:58.235Z,2.65
2023-02-28T18:31:07.469Z,2.40
2023-02-28T18:34:10.436Z,2.35
2023-02-28T18:37:13.305Z,2.90
2023-02-28T18:40:16.603Z,2.97
2023-02-28T18:43:20.877Z,2.97
2023-02-28T18:46:23.868Z,2.78
2023-02-28T18:49:26.918Z,2.45
2023-02-28T18:52:29.838Z,2.25
2023-02-28T18:55:34.166Z,2.88
2023-02-28T18:58:38.527Z,2.78
2023-02-28T19:01:41.412Z,2.58
2023-02-28T19:04:44.456Z,2.78
2023-02-28T19:07:47.798Z,2.33
2023-02-28T19:10:50.740Z,2.72
2023-02-28T19:13:54.944Z,2.53
2023-02-28T19:16:57.915Z,2.60
2023-02-28T19:20:01.014Z,2.75
2023-02-28T19:23:03.905Z,2.70
2023-02-28T19:26:08.138Z,3.30
2023-02-28T19:29:12.386Z,2.55
2023-02-28T19:32:15.357Z,2.72
2023-02-28T19:35:18.651Z,2.60
2023-02-28T19:38:21.796Z,2.70
2023-02-28T19:41:24.710Z,2.70
2023-02-28T19:44:29.273Z,2.85
2023-02-28T19:47:32.383Z,2.53
2023-02-28T19:50:37.097Z,2.40
2023-02-28T19:53:41.396Z,2.40
2023-02-28T19:56:44.361Z,2.55
2023-02-28T19:59:49.581Z,2.40
2023-02-28T20:02:53.455Z,2.42
2023-02-28T20:06:04.652Z,2.60
2023-02-28T20:09:07.538Z,2.78
2023-02-28T20:12:23.179Z,2.65
2023-02-28T20:15:28.240Z,2.40
2023-02-28T20:18:31.105Z,2.30
2023-02-28T20:21:34.009Z,2.38
2023-02-28T20:24:37.300Z,2.83
2023-02-28T20:27:40.190Z,2.60
2023-02-28T20:30:45.852Z,2.28
2023-02-28T20:33:49.388Z,2.35
2023-02-28T20:36:52.421Z,2.60
2023-02-28T20:39:55.302Z,2.88
2023-02-28T20:42:58.283Z,2.53
2023-02-28T20:46:03.036Z,2.50
2023-02-28T20:49:06.179Z,2.67
2023-02-28T20:52:09.202Z,2.55
2023-02-28T20:55:13.750Z,2.42
2023-02-28T20:58:16.715Z,2.42
2023-02-28T21:01:25.952Z,2.30
2023-02-28T21:04:29.078Z,2.53
2023-02-28T21:07:32.011Z,2.65
2023-02-28T21:10:34.987Z,2.70
2023-02-28T21:13:38.496Z,2.40
2023-02-28T21:16:44.350Z,2.67
2023-02-28T21:19:47.539Z,2.58
2023-02-28T21:22:50.573Z,2.20
2023-02-28T21:25:53.476Z,2.30
2023-02-28T21:28:58.404Z,2.15
2023-02-28T21:32:02.725Z,2.60
2023-02-28T21:35:07.383Z,1.95
2023-02-28T21:38:10.297Z,2.80
2023-02-28T21:41:15.675Z,2.10
2023-02-28T21:44:19.328Z,2.45
2023-02-28T21:47:24.149Z,2.20
2023-02-28T21:50:27.066Z,2.20
2023-02-28T21:53:31.427Z,2.28
2023-02-28T21:56:36.084Z,2.10
2023-02-28T21:59:38.927Z,2.40
2023-02-28T22:02:43.289Z,2.58
2023-02-28T22:05:46.222Z,2.20
2023-02-28T22:08:51.112Z,2.35
2023-02-28T22:11:54.147Z,3.08
2023-02-28T22:14:57.037Z,2.60
2023-02-28T22:18:01.302Z,2.10
2023-02-28T22:21:04.966Z,2.60
2023-02-28T22:24:09.238Z,2.60
2023-02-28T22:27:12.118Z,2.40
2023-02-28T22:30:15.506Z,2.45
2023-02-28T22:33:19.946Z,2.28
2023-02-28T22:36:24.202Z,2.25
2023-02-28T22:39:27.142Z,2.15
2023-02-28T22:42:33.238Z,2.38
2023-02-28T22:45:37.009Z,2.20
2023-02-28T22:48:41.498Z,2.40
2023-02-28T22:51:44.550Z,2.40
2023-02-28T22:54:50.884Z,2.42
2023-02-28T22:57:53.830Z,2.20
2023-02-28T23:00:57.821Z,2.05
2023-02-28T23:04:02.822Z,2.30
2023-02-28T23:07:05.845Z,2.40
2023-02-28T23:10:11.217Z,1.95
2023-02-28T23:13:14.071Z,2.17
2023-02-28T23:16:16.931Z,2.10
2023-02-28T23:19:23.644Z,1.92
2023-02-28T23:22:26.676Z,2.47
2023-02-28T23:25:29.740Z,2.28
2023-02-28T23:28:32.686Z,2.55
2023-02-28T23:31:35.597Z,2.40
2023-02-28T23:34:39.843Z,2.20
2023-02-28T23:37:43.297Z,2.10
2023-02-28T23:40:46.185Z,2.25
2023-02-28T23:43:49.619Z,2.38
2023-02-28T23:46:54.415Z,1.90
2023-02-28T23:49:58.707Z,2.28
2023-02-28T23:53:01.594Z,1.90
2023-02-28T23:56:04.920Z,2.40
2023-02-28T23:59:08.104Z,2.20
